createdAt,value
2018-04-30T00:01:24.514Z,12.80
2018-04-30T00:03:52.294Z,12.90
2018-04-30T00:06:20.062Z,12.90
2018-04-30T00:08:47.567Z,12.80
2018-04-30T00:11:15.277Z,12.80
2018-04-30T00:13:43.034Z,13.00
2018-04-30T00:16:10.546Z,12.90
2018-04-30T00:18:38.257Z,13.00
2018-04-30T00:21:06.019Z,12.90
2018-04-30T00:23:33.551Z,12.70
2018-04-30T00:26:01.247Z,12.80
2018-04-30T00:28:29.006Z,12.70
2018-04-30T00:30:56.519Z,12.70
2018-04-30T00:33:24.203Z,12.70
2018-04-30T00:35:51.759Z,12.60
2018-04-30T00:38:19.519Z,12.60
2018-04-30T00:40:47.158Z,12.70
2018-04-30T00:43:15.187Z,12.80
2018-04-30T00:45:42.710Z,12.70
2018-04-30T00:48:10.224Z,12.70
2018-04-30T00:50:37.883Z,12.70
2018-04-30T00:53:05.410Z,12.60
2018-04-30T00:55:32.946Z,12.60
2018-04-30T00:58:00.610Z,12.60
2018-04-30T01:00:28.126Z,12.70
2018-04-30T01:02:55.629Z,12.80
2018-04-30T01:05:23.185Z,12.90
2018-04-30T01:07:50.768Z,13.00
2018-04-30T01:10:18.530Z,13.00
2018-04-30T01:12:46.038Z,12.80
2018-04-30T01:15:13.723Z,12.70
2018-04-30T01:17:41.230Z,12.80
2018-04-30T01:20:08.738Z,12.90
2018-04-30T01:22:36.411Z,12.90
2018-04-30T01:25:03.910Z,12.80
2018-04-30T01:27:32.242Z,12.70
2018-04-30T01:29:59.893Z,12.60
2018-04-30T01:32:27.402Z,12.70
2018-04-30T01:34:54.908Z,12.80
2018-04-30T01:37:22.418Z,12.70
2018-04-30T01:39:49.966Z,12.70
2018-04-30T01:42:17.485Z,12.70
2018-04-30T01:44:44.995Z,12.80
2018-04-30T01:47:12.524Z,12.90
2018-04-30T01:49:40.048Z,12.70
2018-04-30T01:52:07.718Z,12.80
2018-04-30T01:54:35.230Z,12.90
2018-04-30T01:57:02.748Z,12.80
2018-04-30T01:59:30.266Z,12.70
2018-04-30T02:01:58.548Z,12.80
2018-04-30T02:04:26.054Z,12.80
2018-04-30T02:06:53.712Z,12.90
2018-04-30T02:09:21.326Z,12.80
2018-04-30T02:11:48.843Z,12.70
2018-04-30T02:14:16.390Z,12.70
2018-04-30T02:16:44.677Z,12.70
2018-04-30T02:19:12.196Z,12.70
2018-04-30T02:21:39.912Z,12.60
2018-04-30T02:24:08.360Z,12.60
2018-04-30T02:26:36.137Z,12.60
2018-04-30T02:29:03.646Z,12.70
2018-04-30T02:31:31.330Z,12.60
2018-04-30T02:33:59.114Z,12.60
2018-04-30T02:36:26.631Z,12.70
2018-04-30T02:38:54.150Z,12.80
2018-04-30T02:41:21.669Z,12.90
2018-04-30T02:43:49.244Z,12.70
2018-04-30T02:46:16.754Z,12.70
2018-04-30T02:48:44.257Z,12.70
2018-04-30T02:51:11.818Z,12.60
2018-04-30T02:53:39.349Z,12.50
2018-04-30T02:56:06.860Z,12.60
2018-04-30T02:58:34.378Z,12.60
2018-04-30T03:01:02.232Z,12.40
2018-04-30T03:03:29.823Z,12.30
2018-04-30T03:05:57.606Z,12.30
2018-04-30T03:08:25.118Z,12.40
2018-04-30T03:10:52.809Z,12.40
2018-04-30T03:13:20.578Z,12.30
2018-04-30T03:15:48.201Z,12.30
2018-04-30T03:18:15.762Z,12.30
2018-04-30T03:20:43.551Z,12.40
2018-04-30T03:23:11.062Z,12.50
2018-04-30T03:25:38.694Z,12.50
2018-04-30T03:28:06.262Z,12.50
2018-04-30T03:30:33.783Z,12.60
2018-04-30T03:33:01.451Z,12.70
2018-04-30T03:35:28.956Z,12.80
2018-04-30T03:37:56.667Z,12.90
2018-04-30T03:40:24.179Z,12.70
2018-04-30T03:42:51.859Z,12.70
2018-04-30T03:45:19.371Z,12.60
2018-04-30T03:47:47.190Z,12.50
2018-04-30T03:50:14.697Z,12.60
2018-04-30T03:52:42.977Z,12.60
2018-04-30T03:55:10.707Z,12.60
2018-04-30T03:57:38.240Z,12.70
2018-04-30T04:00:05.749Z,12.80
2018-04-30T04:02:45.345Z,12.80
2018-04-30T04:05:24.807Z,12.90
2018-04-30T04:07:52.562Z,13.00
2018-04-30T04:10:20.074Z,13.00
2018-04-30T04:12:47.863Z,12.90
2018-04-30T04:15:15.562Z,12.80
2018-04-30T04:17:43.317Z,12.70
2018-04-30T04:20:10.835Z,12.80
2018-04-30T04:22:38.533Z,12.90
2018-04-30T04:25:06.048Z,12.80
2018-04-30T04:27:33.752Z,12.90
2018-04-30T04:30:01.272Z,13.00
2018-04-30T04:32:29.047Z,13.00
2018-04-30T04:34:56.704Z,13.00
2018-04-30T04:37:24.221Z,13.00
2018-04-30T04:39:51.976Z,13.00
2018-04-30T04:42:19.725Z,13.00
2018-04-30T04:44:47.223Z,13.10
2018-04-30T04:47:14.863Z,13.20
2018-04-30T04:49:42.378Z,13.20
2018-04-30T04:52:10.150Z,13.30
2018-04-30T04:54:38.537Z,13.30
2018-04-30T04:57:06.070Z,13.50
2018-04-30T04:59:33.592Z,13.30
2018-04-30T05:02:01.864Z,13.30
2018-04-30T05:04:29.982Z,13.30
2018-04-30T05:06:57.658Z,13.40
2018-04-30T05:09:25.191Z,13.90
2018-04-30T05:11:52.846Z,14.40
2018-04-30T05:14:20.821Z,14.60
2018-04-30T05:16:48.711Z,14.90
2018-04-30T05:19:16.245Z,14.90
2018-04-30T05:21:43.805Z,14.80
2018-04-30T05:24:11.366Z,14.60
2018-04-30T05:26:38.887Z,14.80
2018-04-30T05:29:07.409Z,14.80
2018-04-30T05:31:34.985Z,15.00
2018-04-30T05:34:02.714Z,14.90
2018-04-30T05:36:30.234Z,14.80
2018-04-30T05:38:57.764Z,15.00
2018-04-30T05:41:25.428Z,15.00
2018-04-30T05:43:53.224Z,15.00
2018-04-30T05:46:20.899Z,14.80
2018-04-30T05:48:48.586Z,15.10
2018-04-30T05:51:16.355Z,15.30
2018-04-30T05:53:43.978Z,15.30
2018-04-30T05:56:11.705Z,15.10
2018-04-30T05:58:39.314Z,15.20
2018-04-30T06:01:06.824Z,15.40
2018-04-30T06:03:34.353Z,15.40
2018-04-30T06:06:01.867Z,15.60
2018-04-30T06:08:29.609Z,15.90
2018-04-30T06:10:57.126Z,15.90
2018-04-30T06:13:24.638Z,16.20
2018-04-30T06:15:52.213Z,16.30
2018-04-30T06:18:21.481Z,16.10
2018-04-30T06:20:48.977Z,16.10
2018-04-30T06:23:16.503Z,16.00
2018-04-30T06:25:44.248Z,15.70
2018-04-30T06:28:11.761Z,15.60
2018-04-30T06:30:39.277Z,15.60
2018-04-30T06:33:06.937Z,15.50
2018-04-30T06:35:34.694Z,15.50
2018-04-30T06:38:02.470Z,15.40
2018-04-30T06:40:29.989Z,15.50
2018-04-30T06:42:57.678Z,15.70
2018-04-30T06:45:25.194Z,15.70
2018-04-30T06:47:52.701Z,15.80
2018-04-30T06:50:20.233Z,16.00
2018-04-30T06:52:47.814Z,16.00
2018-04-30T06:55:16.191Z,16.00
2018-04-30T06:57:43.709Z,15.90
2018-04-30T07:00:11.406Z,16.00
2018-04-30T07:02:38.914Z,15.90
2018-04-30T07:05:06.457Z,16.20
2018-04-30T07:07:34.110Z,16.30
2018-04-30T07:10:01.638Z,16.10
2018-04-30T07:12:29.305Z,16.20
2018-04-30T07:14:56.866Z,16.10
2018-04-30T07:17:24.503Z,16.30
2018-04-30T07:19:52.633Z,16.20
2018-04-30T07:22:20.151Z,16.20
2018-04-30T07:24:47.738Z,16.20
2018-04-30T07:27:15.246Z,16.20
2018-04-30T07:29:43.039Z,16.20
2018-04-30T07:32:10.801Z,16.10
2018-04-30T07:34:38.318Z,16.20
2018-04-30T07:37:05.833Z,16.20
2018-04-30T07:39:33.381Z,16.20
2018-04-30T07:42:00.902Z,16.20
2018-04-30T07:44:28.648Z,16.30
2018-04-30T07:46:56.152Z,16.40
2018-04-30T07:49:23.673Z,16.40
2018-04-30T07:51:51.345Z,16.60
2018-04-30T07:54:18.857Z,16.70
2018-04-30T07:56:47.159Z,16.70
2018-04-30T07:59:14.675Z,16.60
2018-04-30T08:01:42.188Z,16.50
2018-04-30T08:04:09.885Z,16.50
2018-04-30T08:06:37.402Z,16.50
2018-04-30T08:09:05.722Z,16.50
2018-04-30T08:11:33.490Z,16.40
2018-04-30T08:14:01.031Z,16.40
2018-04-30T08:16:28.546Z,16.60
2018-04-30T08:18:56.055Z,16.70
2018-04-30T08:21:23.596Z,16.90
2018-04-30T08:23:51.405Z,16.90
2018-04-30T08:26:19.026Z,16.90
2018-04-30T08:28:46.533Z,16.80
2018-04-30T08:31:14.356Z,17.00
2018-04-30T08:33:41.881Z,17.10
2018-04-30T08:36:09.608Z,17.10
2018-04-30T08:38:38.590Z,16.90
2018-04-30T08:41:06.142Z,17.00
2018-04-30T08:43:33.813Z,17.00
2018-04-30T08:46:01.835Z,17.10
2018-04-30T08:48:29.338Z,17.10
2018-04-30T08:50:56.869Z,17.10
2018-04-30T08:53:24.373Z,17.20
2018-04-30T08:55:52.658Z,17.40
2018-04-30T08:58:20.187Z,17.40
2018-04-30T09:00:47.705Z,17.30
2018-04-30T09:03:15.290Z,17.20
2018-04-30T09:05:43.062Z,17.20
2018-04-30T09:08:10.827Z,17.10
2018-04-30T09:10:38.573Z,17.10
2018-04-30T09:13:06.110Z,17.10
2018-04-30T09:15:33.771Z,17.10
2018-04-30T09:18:01.573Z,17.10
2018-04-30T09:20:29.092Z,17.10
2018-04-30T09:22:56.777Z,17.20
2018-04-30T09:25:24.314Z,17.20
2018-04-30T09:27:52.178Z,17.30
2018-04-30T09:30:19.690Z,17.30
2018-04-30T09:32:48.133Z,17.40
2018-04-30T09:35:15.653Z,17.40
2018-04-30T09:37:43.368Z,17.50
2018-04-30T09:40:10.889Z,17.50
2018-04-30T09:42:38.396Z,17.40
2018-04-30T09:45:05.926Z,17.30
2018-04-30T09:47:33.505Z,17.20
2018-04-30T09:50:01.027Z,17.20
2018-04-30T09:52:28.580Z,17.10
2018-04-30T09:54:56.150Z,17.20
2018-04-30T09:57:23.661Z,17.10
2018-04-30T09:59:51.938Z,17.00
2018-04-30T10:02:19.774Z,16.90
2018-04-30T10:04:47.284Z,17.00
2018-04-30T10:07:15.063Z,16.90
2018-04-30T10:09:42.730Z,16.90
2018-04-30T10:12:10.265Z,16.80
2018-04-30T10:14:37.978Z,16.80
2018-04-30T10:17:05.492Z,16.80
2018-04-30T10:19:33.330Z,16.70
2018-04-30T10:22:00.846Z,16.70
2018-04-30T10:24:28.430Z,16.70
2018-04-30T10:26:57.654Z,16.50
2018-04-30T10:29:25.212Z,16.50
2018-04-30T10:31:52.686Z,16.40
2018-04-30T10:34:20.211Z,16.40
2018-04-30T10:36:47.853Z,16.20
2018-04-30T10:39:15.373Z,16.10
2018-04-30T10:41:43.046Z,16.10
2018-04-30T10:44:10.547Z,16.20
2018-04-30T10:46:38.090Z,16.00
2018-04-30T10:49:05.720Z,15.90
2018-04-30T10:51:33.303Z,15.90
2018-04-30T10:54:00.749Z,15.90
2018-04-30T10:56:28.429Z,15.90
2018-04-30T10:58:56.202Z,15.90
2018-04-30T11:01:23.958Z,15.80
2018-04-30T11:03:51.730Z,15.70
2018-04-30T11:06:19.246Z,15.70
2018-04-30T11:08:46.905Z,15.70
2018-04-30T11:11:14.700Z,15.70
2018-04-30T11:13:42.214Z,15.80
2018-04-30T11:16:09.736Z,15.90
2018-04-30T11:18:37.367Z,15.90
2018-04-30T11:21:04.927Z,15.90
2018-04-30T11:23:32.446Z,16.00
2018-04-30T11:26:00.000Z,16.20
2018-04-30T11:28:27.840Z,16.20
2018-04-30T11:30:55.345Z,16.20
2018-04-30T11:33:22.865Z,16.20
2018-04-30T11:35:51.168Z,15.90
2018-04-30T11:38:18.714Z,15.90
2018-04-30T11:40:46.370Z,15.70
2018-04-30T11:43:13.879Z,15.60
2018-04-30T11:45:41.391Z,15.50
2018-04-30T11:48:09.301Z,15.30
2018-04-30T11:50:37.646Z,15.10
2018-04-30T11:53:05.254Z,15.10
2018-04-30T11:55:32.774Z,14.90
2018-04-30T11:58:00.286Z,14.80
2018-04-30T12:00:27.826Z,14.70
2018-04-30T12:02:56.850Z,14.50
2018-04-30T12:05:24.574Z,14.50
2018-04-30T12:07:52.190Z,14.50
2018-04-30T12:10:19.707Z,14.50
2018-04-30T12:12:47.248Z,14.50
2018-04-30T12:15:14.754Z,14.50
2018-04-30T12:17:42.275Z,14.50
2018-04-30T12:20:09.943Z,14.50
2018-04-30T12:22:37.462Z,14.60
2018-04-30T12:25:04.974Z,14.60
2018-04-30T12:27:33.521Z,14.50
2018-04-30T12:30:01.258Z,14.50
2018-04-30T12:32:28.969Z,14.50
2018-04-30T12:34:56.491Z,14.60
2018-04-30T12:37:24.141Z,14.50
2018-04-30T12:39:51.726Z,14.60
2018-04-30T12:42:19.233Z,14.50
2018-04-30T12:44:46.749Z,14.50
2018-04-30T12:47:14.262Z,14.50
2018-04-30T12:49:41.846Z,14.40
2018-04-30T12:52:09.313Z,14.30
2018-04-30T12:54:36.818Z,14.10
2018-04-30T12:57:04.450Z,14.20
2018-04-30T12:59:31.974Z,14.00
2018-04-30T13:01:59.696Z,13.90
2018-04-30T13:04:27.198Z,13.70
2018-04-30T13:06:54.713Z,13.70
2018-04-30T13:09:22.442Z,13.60
2018-04-30T13:11:50.168Z,13.60
2018-04-30T13:14:17.954Z,13.50
2018-04-30T13:16:45.717Z,13.50
2018-04-30T13:19:13.223Z,13.50
2018-04-30T13:21:41.503Z,13.60
2018-04-30T13:24:09.043Z,13.60
2018-04-30T13:26:36.573Z,13.60
2018-04-30T13:29:04.230Z,13.60
2018-04-30T13:31:32.000Z,13.60
2018-04-30T13:33:59.531Z,13.60
2018-04-30T13:36:27.185Z,13.60
2018-04-30T13:38:55.507Z,13.60
2018-04-30T13:41:23.782Z,13.50
2018-04-30T13:43:51.284Z,13.50
2018-04-30T13:46:18.794Z,13.40
2018-04-30T13:48:46.313Z,13.50
2018-04-30T13:51:14.104Z,13.40
2018-04-30T13:53:41.878Z,13.50
2018-04-30T13:56:09.407Z,13.50
2018-04-30T13:58:36.924Z,13.60
2018-04-30T14:01:04.424Z,13.60
2018-04-30T14:03:31.945Z,13.70
2018-04-30T14:05:59.458Z,13.80
2018-04-30T14:08:26.986Z,13.90
2018-04-30T14:10:54.525Z,14.20
2018-04-30T14:13:22.129Z,14.40
2018-04-30T14:15:49.638Z,14.40
2018-04-30T14:18:17.361Z,14.40
2018-04-30T14:20:44.873Z,14.40
2018-04-30T14:23:12.578Z,14.30
2018-04-30T14:25:40.085Z,14.60
2018-04-30T14:28:07.593Z,14.80
2018-04-30T14:30:35.215Z,14.90
2018-04-30T14:33:02.721Z,15.00
2018-04-30T14:35:30.444Z,15.00
2018-04-30T14:37:57.950Z,15.10
2018-04-30T14:40:25.667Z,15.00
2018-04-30T14:42:53.454Z,15.10
2018-04-30T14:45:20.977Z,15.10
2018-04-30T14:47:48.485Z,15.00
2018-04-30T14:50:16.004Z,15.40
2018-04-30T14:52:43.500Z,15.80
2018-04-30T14:55:11.024Z,15.80
2018-04-30T14:57:38.806Z,15.90
2018-04-30T15:00:06.311Z,16.20
2018-04-30T15:02:34.025Z,16.80
2018-04-30T15:05:01.527Z,16.90
2018-04-30T15:07:29.223Z,16.70
2018-04-30T15:09:57.010Z,16.30
2018-04-30T15:12:24.524Z,16.70
2018-04-30T15:14:52.041Z,17.00
2018-04-30T15:17:19.686Z,16.80
2018-04-30T15:19:47.438Z,16.70
2018-04-30T15:22:14.936Z,16.40
2018-04-30T15:24:42.456Z,16.60
2018-04-30T15:27:09.949Z,16.50
2018-04-30T15:29:37.589Z,16.40
2018-04-30T15:32:05.373Z,16.30
2018-04-30T15:34:32.884Z,16.10
2018-04-30T15:37:00.566Z,16.10
2018-04-30T15:39:28.330Z,16.20
2018-04-30T15:41:55.835Z,16.40
2018-04-30T15:44:23.353Z,16.40
2018-04-30T15:46:50.854Z,16.40
2018-04-30T15:49:18.466Z,16.30
2018-04-30T15:51:46.244Z,16.40
2018-04-30T15:54:13.762Z,16.40
2018-04-30T15:56:41.273Z,16.70
2018-04-30T15:59:08.790Z,17.40
2018-04-30T16:01:36.296Z,17.90
2018-04-30T16:04:03.820Z,17.60
2018-04-30T16:06:31.577Z,18.30
2018-04-30T16:08:59.093Z,18.10
2018-04-30T16:11:26.786Z,17.60
2018-04-30T16:13:55.213Z,18.40
2018-04-30T16:16:22.716Z,19.10
2018-04-30T16:18:50.371Z,19.20
2018-04-30T16:21:18.037Z,18.40
2018-04-30T16:23:45.620Z,17.90
2018-04-30T16:26:13.139Z,17.30
2018-04-30T16:28:40.855Z,17.20
2018-04-30T16:31:08.354Z,17.00
2018-04-30T16:33:35.874Z,17.00
2018-04-30T16:36:03.389Z,17.60
2018-04-30T16:38:30.890Z,17.60
2018-04-30T16:40:58.403Z,17.50
2018-04-30T16:43:25.902Z,17.60
2018-04-30T16:45:53.647Z,17.50
2018-04-30T16:48:21.413Z,17.50
2018-04-30T16:50:48.952Z,17.50
2018-04-30T16:53:16.638Z,17.60
2018-04-30T16:55:44.394Z,17.50
2018-04-30T16:58:11.902Z,17.20
2018-04-30T17:00:39.589Z,17.20
2018-04-30T17:03:07.108Z,17.30
2018-04-30T17:05:34.618Z,17.20
2018-04-30T17:08:02.302Z,17.50
2018-04-30T17:10:29.843Z,17.70
2018-04-30T17:12:57.665Z,17.70
2018-04-30T17:15:26.133Z,17.00
2018-04-30T17:17:54.554Z,16.90
2018-04-30T17:20:22.342Z,16.90
2018-04-30T17:22:50.210Z,16.90
2018-04-30T17:25:17.868Z,16.80
2018-04-30T17:27:45.433Z,16.90
2018-04-30T17:30:13.163Z,17.10
2018-04-30T17:32:40.686Z,17.10
2018-04-30T17:35:08.181Z,17.20
2018-04-30T17:37:35.736Z,17.10
2018-04-30T17:40:03.261Z,17.00
2018-04-30T17:42:31.568Z,16.80
2018-04-30T17:44:59.361Z,16.70
2018-04-30T17:47:26.875Z,16.50
2018-04-30T17:49:54.561Z,16.30
2018-04-30T17:52:22.100Z,16.20
2018-04-30T17:54:50.433Z,16.10
2018-04-30T17:57:17.933Z,16.10
2018-04-30T17:59:45.446Z,16.10
2018-04-30T18:02:12.959Z,16.10
2018-04-30T18:04:40.553Z,16.10
2018-04-30T18:07:08.156Z,16.10
2018-04-30T18:09:35.590Z,16.10
2018-04-30T18:12:03.194Z,16.00
2018-04-30T18:14:30.711Z,16.00
2018-04-30T18:16:58.212Z,16.00
2018-04-30T18:19:25.898Z,16.00
2018-04-30T18:21:53.412Z,16.00
2018-04-30T18:24:21.530Z,16.00
2018-04-30T18:26:49.063Z,16.00
2018-04-30T18:29:16.610Z,16.00
2018-04-30T18:31:44.115Z,15.90
2018-04-30T18:34:11.620Z,15.80
2018-04-30T18:36:39.138Z,15.80
2018-04-30T18:39:06.657Z,15.80
2018-04-30T18:41:34.238Z,15.80
2018-04-30T18:44:01.749Z,15.70
2018-04-30T18:46:29.256Z,15.70
2018-04-30T18:48:56.897Z,15.70
2018-04-30T18:51:24.404Z,15.70
2018-04-30T18:53:52.163Z,15.60
2018-04-30T18:56:20.010Z,15.60
2018-04-30T18:58:47.640Z,15.50
2018-04-30T19:01:15.370Z,15.50
2018-04-30T19:03:42.890Z,15.70
2018-04-30T19:06:12.186Z,16.10
2018-04-30T19:08:39.700Z,16.10
2018-04-30T19:11:07.403Z,16.00
2018-04-30T19:13:35.167Z,16.20
2018-04-30T19:16:02.670Z,16.00
2018-04-30T19:18:30.390Z,15.80
2018-04-30T19:20:57.906Z,15.70
2018-04-30T19:23:25.605Z,15.70
2018-04-30T19:25:53.126Z,15.60
2018-04-30T19:28:20.798Z,15.70
2018-04-30T19:30:48.581Z,15.60
2018-04-30T19:33:16.366Z,15.50
2018-04-30T19:35:43.989Z,15.50
2018-04-30T19:38:11.578Z,15.40
2018-04-30T19:40:39.342Z,15.30
2018-04-30T19:43:07.702Z,15.30
2018-04-30T19:45:35.213Z,15.30
2018-04-30T19:48:02.919Z,15.30
2018-04-30T19:50:30.693Z,15.30
2018-04-30T19:52:58.273Z,15.20
2018-04-30T19:55:25.933Z,15.20
2018-04-30T19:57:53.431Z,15.30
2018-04-30T20:00:20.944Z,15.20
2018-04-30T20:02:48.450Z,15.20
2018-04-30T20:05:16.053Z,15.30
2018-04-30T20:07:43.814Z,15.20
2018-04-30T20:10:11.599Z,15.40
2018-04-30T20:12:39.601Z,15.20
2018-04-30T20:15:07.121Z,15.20
2018-04-30T20:17:34.643Z,15.30
2018-04-30T20:20:02.225Z,15.10
2018-04-30T20:22:29.760Z,15.10
2018-04-30T20:24:57.546Z,15.20
2018-04-30T20:27:25.063Z,15.10
2018-04-30T20:29:53.401Z,15.30
2018-04-30T20:32:21.146Z,15.20
2018-04-30T20:34:48.650Z,15.10
2018-04-30T20:37:16.179Z,15.00
2018-04-30T20:39:43.839Z,15.10
2018-04-30T20:42:11.353Z,15.20
2018-04-30T20:44:38.919Z,15.20
2018-04-30T20:47:06.464Z,15.20
2018-04-30T20:49:33.977Z,15.00
2018-04-30T20:52:01.507Z,15.10
2018-04-30T20:54:29.014Z,15.20
2018-04-30T20:56:57.310Z,14.80
2018-04-30T20:59:25.011Z,14.80
2018-04-30T21:01:52.640Z,14.50
2018-04-30T21:04:20.232Z,14.50
2018-04-30T21:06:47.746Z,14.20
2018-04-30T21:09:16.082Z,14.20
2018-04-30T21:11:43.846Z,14.10
2018-04-30T21:14:11.339Z,14.00
2018-04-30T21:16:38.850Z,13.90
2018-04-30T21:19:06.476Z,13.80
2018-04-30T21:21:34.798Z,13.80
2018-04-30T21:24:02.346Z,13.70
2018-04-30T21:26:30.102Z,13.70
2018-04-30T21:28:57.614Z,13.70
2018-04-30T21:31:25.260Z,13.70
2018-04-30T21:33:52.778Z,13.60
2018-04-30T21:36:20.289Z,13.60
2018-04-30T21:38:47.997Z,13.40
2018-04-30T21:41:15.570Z,13.50
2018-04-30T21:43:43.222Z,13.40
2018-04-30T21:46:10.749Z,13.40
2018-04-30T21:48:38.434Z,13.30
2018-04-30T21:51:06.176Z,13.40
2018-04-30T21:53:33.961Z,13.50
2018-04-30T21:56:01.679Z,13.40
2018-04-30T21:58:29.491Z,13.50
2018-04-30T22:00:56.997Z,13.50
2018-04-30T22:03:25.218Z,13.50
2018-04-30T22:05:52.725Z,13.40
2018-04-30T22:08:20.234Z,13.50
2018-04-30T22:10:47.730Z,13.40
2018-04-30T22:13:15.242Z,13.40
2018-04-30T22:15:42.910Z,13.40
2018-04-30T22:18:10.657Z,13.40
2018-04-30T22:20:38.460Z,13.30
2018-04-30T22:23:06.201Z,13.30
2018-04-30T22:25:33.966Z,13.30
2018-04-30T22:28:01.753Z,13.20
2018-04-30T22:30:29.375Z,13.20
2018-04-30T22:32:56.966Z,13.30
2018-04-30T22:35:24.957Z,13.20
2018-04-30T22:37:52.470Z,13.10
2018-04-30T22:40:20.254Z,13.10
2018-04-30T22:42:47.753Z,13.00
2018-04-30T22:45:15.466Z,13.00
2018-04-30T22:47:43.221Z,13.00
2018-04-30T22:50:11.544Z,13.00
2018-04-30T22:52:39.058Z,12.90
2018-04-30T22:55:06.683Z,12.80
2018-04-30T22:57:34.257Z,12.80
2018-04-30T23:00:01.766Z,12.80
2018-04-30T23:02:29.325Z,12.70
2018-04-30T23:04:56.829Z,12.70
2018-04-30T23:07:24.353Z,12.60
2018-04-30T23:09:51.871Z,12.50
2018-04-30T23:12:19.369Z,12.50
2018-04-30T23:14:47.054Z,12.60
2018-04-30T23:17:14.562Z,12.50
2018-04-30T23:19:42.080Z,12.30
2018-04-30T23:22:09.682Z,12.30
2018-04-30T23:24:37.193Z,12.30
2018-04-30T23:27:04.690Z,12.30
2018-04-30T23:29:32.446Z,12.40
2018-04-30T23:31:59.951Z,12.40
2018-04-30T23:34:27.464Z,12.50
2018-04-30T23:36:55.023Z,12.60
2018-04-30T23:39:23.318Z,12.60
2018-04-30T23:41:50.836Z,12.50
2018-04-30T23:44:18.385Z,12.50
2018-04-30T23:46:45.879Z,12.60
2018-04-30T23:49:13.401Z,12.60
2018-04-30T23:51:41.107Z,12.60
2018-04-30T23:54:08.616Z,12.60
2018-04-30T23:56:36.152Z,12.50
2018-04-30T23:59:04.422Z,12.60
